Terminal Aerodrome Forecast
Issued by NWS

Home | Current Version | Previous Version | Text Only | Print | Product List | Glossary On
Versions: 1 2 3 4 5 6 7 8 9 10 11 12 13 14
000
FTUS45 KREV 251734
TAFTVL
TAF
KTVL 251734Z 2518/2618 19008KT P6SM VCSH SCT035 BKN060
     FM260000 VRB04KT P6SM SCT060 BKN200
     FM261300 19008KT P6SM BKN050 OVC090=

USA.gov is the U.S. government's official web portal to all federal, state and local government web resources and services.